sensor_id;sensor_type;location;lat;lon;timestamp;P1;durP1;ratioP1;P2;durP2;ratioP2
11086;SDS011;5597;47.588;9.642;2023-05-16T00:00:24;4.17;;;3.87;;
11086;SDS011;5597;47.588;9.642;2023-05-16T00:02:50;4.13;;;3.73;;
11086;SDS011;5597;47.588;9.642;2023-05-16T00:05:16;3.90;;;3.60;;
11086;SDS011;5597;47.588;9.642;2023-05-16T00:07:42;3.83;;;3.50;;
11086;SDS011;5597;47.588;9.642;2023-05-16T00:10:10;3.57;;;3.27;;
11086;SDS011;5597;47.588;9.642;2023-05-16T00:12:36;3.40;;;3.10;;
11086;SDS011;5597;47.588;9.642;2023-05-16T00:15:03;3.80;;;3.50;;
11086;SDS011;5597;47.588;9.642;2023-05-16T00:17:36;3.70;;;3.40;;
11086;SDS011;5597;47.588;9.642;2023-05-16T00:20:02;3.63;;;3.33;;
11086;SDS011;5597;47.588;9.642;2023-05-16T00:22:35;3.33;;;3.03;;
11086;SDS011;5597;47.588;9.642;2023-05-16T00:25:01;3.93;;;3.63;;
11086;SDS011;5597;47.588;9.642;2023-05-16T00:27:27;4.63;;;4.23;;
11086;SDS011;5597;47.588;9.642;2023-05-16T00:29:53;4.47;;;4.07;;
11086;SDS011;5597;47.588;9.642;2023-05-16T00:32:19;4.77;;;4.37;;
11086;SDS011;5597;47.588;9.642;2023-05-16T00:34:44;4.20;;;3.90;;
11086;SDS011;5597;47.588;9.642;2023-05-16T00:37:10;4.70;;;4.13;;
11086;SDS011;5597;47.588;9.642;2023-05-16T00:39:36;4.10;;;3.63;;
11086;SDS011;5597;47.588;9.642;2023-05-16T00:42:02;3.90;;;3.60;;
11086;SDS011;5597;47.588;9.642;2023-05-16T00:44:28;4.03;;;3.73;;
11086;SDS011;5597;47.588;9.642;2023-05-16T00:46:55;3.97;;;3.40;;
11086;SDS011;5597;47.588;9.642;2023-05-16T00:49:21;4.07;;;3.73;;
11086;SDS011;5597;47.588;9.642;2023-05-16T00:51:47;5.03;;;4.53;;
11086;SDS011;5597;47.588;9.642;2023-05-16T00:54:12;4.43;;;4.03;;
11086;SDS011;5597;47.588;9.642;2023-05-16T00:56:38;4.90;;;4.50;;
11086;SDS011;5597;47.588;9.642;2023-05-16T00:59:04;4.57;;;4.17;;
11086;SDS011;5597;47.588;9.642;2023-05-16T01:01:30;4.63;;;4.23;;
11086;SDS011;5597;47.588;9.642;2023-05-16T01:03:56;4.60;;;4.20;;
11086;SDS011;5597;47.588;9.642;2023-05-16T01:06:22;4.43;;;4.03;;
11086;SDS011;5597;47.588;9.642;2023-05-16T01:08:48;4.47;;;4.07;;
11086;SDS011;5597;47.588;9.642;2023-05-16T01:14:08;4.13;;;3.73;;
11086;SDS011;5597;47.588;9.642;2023-05-16T01:16:58;3.90;;;3.50;;
11086;SDS011;5597;47.588;9.642;2023-05-16T01:27:41;4.77;;;3.47;;
11086;SDS011;5597;47.588;9.642;2023-05-16T01:30:13;4.03;;;3.67;;
11086;SDS011;5597;47.588;9.642;2023-05-16T01:32:40;4.20;;;3.80;;
11086;SDS011;5597;47.588;9.642;2023-05-16T01:35:06;4.67;;;4.27;;
11086;SDS011;5597;47.588;9.642;2023-05-16T01:40:11;3.73;;;3.43;;
11086;SDS011;5597;47.588;9.642;2023-05-16T01:42:44;3.70;;;3.40;;
11086;SDS011;5597;47.588;9.642;2023-05-16T01:45:18;3.50;;;3.20;;
11086;SDS011;5597;47.588;9.642;2023-05-16T01:47:46;3.97;;;3.60;;
11086;SDS011;5597;47.588;9.642;2023-05-16T01:50:23;4.00;;;3.60;;
11086;SDS011;5597;47.588;9.642;2023-05-16T01:52:57;4.70;;;4.30;;
11086;SDS011;5597;47.588;9.642;2023-05-16T01:58:02;4.83;;;4.30;;
11086;SDS011;5597;47.588;9.642;2023-05-16T02:00:29;3.67;;;3.37;;
11086;SDS011;5597;47.588;9.642;2023-05-16T02:02:56;5.00;;;4.50;;
11086;SDS011;5597;47.588;9.642;2023-05-16T02:05:21;5.17;;;4.23;;
11086;SDS011;5597;47.588;9.642;2023-05-16T02:07:47;4.20;;;3.80;;
11086;SDS011;5597;47.588;9.642;2023-05-16T02:10:13;5.07;;;4.03;;
11086;SDS011;5597;47.588;9.642;2023-05-16T02:12:39;5.03;;;4.63;;
11086;SDS011;5597;47.588;9.642;2023-05-16T02:15:05;5.17;;;4.67;;
11086;SDS011;5597;47.588;9.642;2023-05-16T02:17:31;5.50;;;5.00;;
11086;SDS011;5597;47.588;9.642;2023-05-16T02:19:56;5.97;;;5.03;;
11086;SDS011;5597;47.588;9.642;2023-05-16T02:22:22;6.70;;;5.07;;
11086;SDS011;5597;47.588;9.642;2023-05-16T02:24:48;4.83;;;4.43;;
11086;SDS011;5597;47.588;9.642;2023-05-16T02:27:13;4.50;;;4.10;;
11086;SDS011;5597;47.588;9.642;2023-05-16T02:29:39;4.50;;;4.10;;
11086;SDS011;5597;47.588;9.642;2023-05-16T02:32:05;5.10;;;4.60;;
11086;SDS011;5597;47.588;9.642;2023-05-16T02:34:31;4.77;;;4.30;;
11086;SDS011;5597;47.588;9.642;2023-05-16T02:36:56;5.10;;;4.40;;
11086;SDS011;5597;47.588;9.642;2023-05-16T02:39:22;4.90;;;4.50;;
11086;SDS011;5597;47.588;9.642;2023-05-16T02:41:48;4.80;;;4.40;;
11086;SDS011;5597;47.588;9.642;2023-05-16T02:44:13;5.07;;;4.60;;
11086;SDS011;5597;47.588;9.642;2023-05-16T02:46:39;5.50;;;5.00;;
11086;SDS011;5597;47.588;9.642;2023-05-16T02:49:05;5.17;;;4.67;;
11086;SDS011;5597;47.588;9.642;2023-05-16T02:51:30;5.17;;;4.73;;
11086;SDS011;5597;47.588;9.642;2023-05-16T02:53:56;4.63;;;4.23;;
11086;SDS011;5597;47.588;9.642;2023-05-16T02:56:23;4.30;;;3.90;;
11086;SDS011;5597;47.588;9.642;2023-05-16T02:58:50;4.50;;;4.10;;
11086;SDS011;5597;47.588;9.642;2023-05-16T03:01:17;5.40;;;4.90;;
11086;SDS011;5597;47.588;9.642;2023-05-16T03:03:43;5.77;;;5.17;;
11086;SDS011;5597;47.588;9.642;2023-05-16T03:06:09;5.50;;;5.00;;
11086;SDS011;5597;47.588;9.642;2023-05-16T03:08:34;6.37;;;5.77;;
11086;SDS011;5597;47.588;9.642;2023-05-16T03:11:00;5.77;;;5.27;;
11086;SDS011;5597;47.588;9.642;2023-05-16T03:13:26;6.60;;;6.00;;
11086;SDS011;5597;47.588;9.642;2023-05-16T03:15:54;7.10;;;6.40;;
11086;SDS011;5597;47.588;9.642;2023-05-16T03:18:20;7.50;;;6.80;;
11086;SDS011;5597;47.588;9.642;2023-05-16T03:20:45;7.57;;;6.77;;
11086;SDS011;5597;47.588;9.642;2023-05-16T03:23:11;7.40;;;6.70;;
11086;SDS011;5597;47.588;9.642;2023-05-16T03:25:37;6.87;;;6.17;;
11086;SDS011;5597;47.588;9.642;2023-05-16T03:28:04;6.90;;;6.20;;
11086;SDS011;5597;47.588;9.642;2023-05-16T03:30:31;6.13;;;5.50;;
11086;SDS011;5597;47.588;9.642;2023-05-16T03:32:58;6.63;;;6.03;;
11086;SDS011;5597;47.588;9.642;2023-05-16T03:35:23;7.33;;;6.03;;
11086;SDS011;5597;47.588;9.642;2023-05-16T03:37:49;6.63;;;5.97;;
11086;SDS011;5597;47.588;9.642;2023-05-16T03:40:15;6.50;;;5.90;;
11086;SDS011;5597;47.588;9.642;2023-05-16T03:42:40;6.57;;;5.97;;
11086;SDS011;5597;47.588;9.642;2023-05-16T03:45:06;5.50;;;5.00;;
11086;SDS011;5597;47.588;9.642;2023-05-16T03:47:32;7.13;;;5.93;;
11086;SDS011;5597;47.588;9.642;2023-05-16T03:49:58;5.80;;;5.10;;
11086;SDS011;5597;47.588;9.642;2023-05-16T03:52:24;6.10;;;5.50;;
11086;SDS011;5597;47.588;9.642;2023-05-16T03:54:50;6.00;;;5.40;;
11086;SDS011;5597;47.588;9.642;2023-05-16T03:57:15;5.53;;;5.00;;
11086;SDS011;5597;47.588;9.642;2023-05-16T03:59:41;5.10;;;4.60;;
11086;SDS011;5597;47.588;9.642;2023-05-16T04:02:07;4.63;;;4.23;;
11086;SDS011;5597;47.588;9.642;2023-05-16T04:04:32;5.23;;;4.73;;
11086;SDS011;5597;47.588;9.642;2023-05-16T04:06:59;6.27;;;5.67;;
11086;SDS011;5597;47.588;9.642;2023-05-16T04:09:25;6.70;;;5.47;;
11086;SDS011;5597;47.588;9.642;2023-05-16T04:11:51;6.10;;;5.50;;
11086;SDS011;5597;47.588;9.642;2023-05-16T04:14:16;6.00;;;5.37;;
11086;SDS011;5597;47.588;9.642;2023-05-16T04:16:42;5.90;;;5.30;;
11086;SDS011;5597;47.588;9.642;2023-05-16T04:19:08;5.30;;;4.80;;
11086;SDS011;5597;47.588;9.642;2023-05-16T04:21:34;5.63;;;5.10;;
11086;SDS011;5597;47.588;9.642;2023-05-16T04:24:00;5.73;;;5.17;;
11086;SDS011;5597;47.588;9.642;2023-05-16T04:26:26;5.87;;;4.73;;
11086;SDS011;5597;47.588;9.642;2023-05-16T04:28:52;5.23;;;4.67;;
11086;SDS011;5597;47.588;9.642;2023-05-16T04:31:17;6.90;;;4.30;;
11086;SDS011;5597;47.588;9.642;2023-05-16T04:33:43;4.87;;;4.37;;
11086;SDS011;5597;47.588;9.642;2023-05-16T04:36:09;4.80;;;4.40;;
11086;SDS011;5597;47.588;9.642;2023-05-16T04:38:35;5.83;;;5.30;;
11086;SDS011;5597;47.588;9.642;2023-05-16T04:41:01;5.23;;;4.73;;
11086;SDS011;5597;47.588;9.642;2023-05-16T04:43:28;4.57;;;4.10;;
11086;SDS011;5597;47.588;9.642;2023-05-16T04:45:54;4.53;;;4.13;;
11086;SDS011;5597;47.588;9.642;2023-05-16T04:48:22;5.27;;;4.77;;
11086;SDS011;5597;47.588;9.642;2023-05-16T04:50:48;4.80;;;4.40;;
11086;SDS011;5597;47.588;9.642;2023-05-16T04:53:13;4.80;;;4.40;;
11086;SDS011;5597;47.588;9.642;2023-05-16T04:55:39;5.00;;;4.53;;
11086;SDS011;5597;47.588;9.642;2023-05-16T04:58:05;5.27;;;4.40;;
11086;SDS011;5597;47.588;9.642;2023-05-16T05:00:32;4.90;;;4.40;;
11086;SDS011;5597;47.588;9.642;2023-05-16T05:02:58;4.67;;;4.27;;
11086;SDS011;5597;47.588;9.642;2023-05-16T05:05:23;4.67;;;4.27;;
11086;SDS011;5597;47.588;9.642;2023-05-16T05:07:49;5.23;;;4.63;;
11086;SDS011;5597;47.588;9.642;2023-05-16T05:10:15;4.90;;;4.50;;
11086;SDS011;5597;47.588;9.642;2023-05-16T05:12:40;5.17;;;4.77;;
11086;SDS011;5597;47.588;9.642;2023-05-16T05:15:06;6.07;;;4.73;;
11086;SDS011;5597;47.588;9.642;2023-05-16T05:17:32;5.23;;;4.73;;
11086;SDS011;5597;47.588;9.642;2023-05-16T05:19:58;4.80;;;4.40;;
11086;SDS011;5597;47.588;9.642;2023-05-16T05:22:24;5.83;;;5.33;;
11086;SDS011;5597;47.588;9.642;2023-05-16T05:24:49;5.47;;;5.00;;
11086;SDS011;5597;47.588;9.642;2023-05-16T05:27:15;6.10;;;5.53;;
11086;SDS011;5597;47.588;9.642;2023-05-16T05:29:41;5.37;;;4.90;;
11086;SDS011;5597;47.588;9.642;2023-05-16T05:32:07;5.87;;;5.37;;
11086;SDS011;5597;47.588;9.642;2023-05-16T05:34:33;6.07;;;5.57;;
11086;SDS011;5597;47.588;9.642;2023-05-16T05:36:58;5.57;;;4.90;;
11086;SDS011;5597;47.588;9.642;2023-05-16T05:39:24;5.37;;;4.87;;
11086;SDS011;5597;47.588;9.642;2023-05-16T05:41:50;7.43;;;5.40;;
11086;SDS011;5597;47.588;9.642;2023-05-16T05:44:16;5.17;;;4.67;;
11086;SDS011;5597;47.588;9.642;2023-05-16T05:46:42;5.90;;;5.30;;
11086;SDS011;5597;47.588;9.642;2023-05-16T05:49:08;5.47;;;4.97;;
11086;SDS011;5597;47.588;9.642;2023-05-16T05:51:34;5.80;;;5.20;;
11086;SDS011;5597;47.588;9.642;2023-05-16T05:54:00;5.90;;;5.30;;
11086;SDS011;5597;47.588;9.642;2023-05-16T05:56:26;5.23;;;4.77;;
11086;SDS011;5597;47.588;9.642;2023-05-16T05:58:52;6.13;;;5.53;;
11086;SDS011;5597;47.588;9.642;2023-05-16T06:01:18;6.27;;;5.67;;
11086;SDS011;5597;47.588;9.642;2023-05-16T06:03:45;5.80;;;5.10;;
11086;SDS011;5597;47.588;9.642;2023-05-16T06:06:11;6.90;;;6.30;;
11086;SDS011;5597;47.588;9.642;2023-05-16T06:08:38;6.57;;;5.90;;
11086;SDS011;5597;47.588;9.642;2023-05-16T06:11:05;6.50;;;5.90;;
11086;SDS011;5597;47.588;9.642;2023-05-16T06:13:31;7.67;;;6.97;;
11086;SDS011;5597;47.588;9.642;2023-05-16T06:15:57;6.97;;;6.27;;
11086;SDS011;5597;47.588;9.642;2023-05-16T06:18:22;8.27;;;7.47;;
11086;SDS011;5597;47.588;9.642;2023-05-16T06:20:48;7.10;;;6.40;;
11086;SDS011;5597;47.588;9.642;2023-05-16T06:23:17;9.20;;;7.83;;
11086;SDS011;5597;47.588;9.642;2023-05-16T06:25:43;8.73;;;7.73;;
11086;SDS011;5597;47.588;9.642;2023-05-16T06:28:08;9.20;;;8.23;;
11086;SDS011;5597;47.588;9.642;2023-05-16T06:30:34;9.10;;;8.10;;
11086;SDS011;5597;47.588;9.642;2023-05-16T06:33:00;8.90;;;8.10;;
11086;SDS011;5597;47.588;9.642;2023-05-16T06:35:25;10.67;;;9.20;;
11086;SDS011;5597;47.588;9.642;2023-05-16T06:37:51;8.63;;;7.73;;
11086;SDS011;5597;47.588;9.642;2023-05-16T06:40:17;8.80;;;8.00;;
11086;SDS011;5597;47.588;9.642;2023-05-16T06:42:42;11.40;;;8.50;;
11086;SDS011;5597;47.588;9.642;2023-05-16T06:45:08;10.07;;;9.10;;
11086;SDS011;5597;47.588;9.642;2023-05-16T06:47:35;10.37;;;9.37;;
11086;SDS011;5597;47.588;9.642;2023-05-16T06:50:00;10.83;;;9.83;;
11086;SDS011;5597;47.588;9.642;2023-05-16T06:52:26;11.07;;;9.97;;
11086;SDS011;5597;47.588;9.642;2023-05-16T06:54:52;11.37;;;10.20;;
11086;SDS011;5597;47.588;9.642;2023-05-16T06:57:18;11.83;;;10.63;;
11086;SDS011;5597;47.588;9.642;2023-05-16T06:59:43;10.97;;;9.87;;
11086;SDS011;5597;47.588;9.642;2023-05-16T07:02:09;12.30;;;11.10;;
11086;SDS011;5597;47.588;9.642;2023-05-16T07:04:35;11.20;;;10.10;;
11086;SDS011;5597;47.588;9.642;2023-05-16T07:07:02;11.67;;;10.47;;
11086;SDS011;5597;47.588;9.642;2023-05-16T07:09:28;12.20;;;10.60;;
11086;SDS011;5597;47.588;9.642;2023-05-16T07:11:54;11.60;;;9.80;;
11086;SDS011;5597;47.588;9.642;2023-05-16T07:14:19;10.77;;;9.67;;
11086;SDS011;5597;47.588;9.642;2023-05-16T07:16:45;9.37;;;8.47;;
11086;SDS011;5597;47.588;9.642;2023-05-16T07:19:11;11.03;;;9.93;;
11086;SDS011;5597;47.588;9.642;2023-05-16T07:21:36;12.20;;;10.77;;
11086;SDS011;5597;47.588;9.642;2023-05-16T07:24:02;12.30;;;11.10;;
11086;SDS011;5597;47.588;9.642;2023-05-16T07:26:28;12.10;;;10.90;;
11086;SDS011;5597;47.588;9.642;2023-05-16T07:28:54;13.17;;;11.70;;
11086;SDS011;5597;47.588;9.642;2023-05-16T07:31:19;12.43;;;11.23;;
11086;SDS011;5597;47.588;9.642;2023-05-16T07:33:45;12.00;;;10.87;;
11086;SDS011;5597;47.588;9.642;2023-05-16T07:36:11;12.37;;;10.73;;
11086;SDS011;5597;47.588;9.642;2023-05-16T07:38:37;11.97;;;10.80;;
11086;SDS011;5597;47.588;9.642;2023-05-16T07:41:03;11.70;;;10.60;;
11086;SDS011;5597;47.588;9.642;2023-05-16T07:43:30;13.17;;;10.60;;
11086;SDS011;5597;47.588;9.642;2023-05-16T07:45:59;12.00;;;10.80;;
11086;SDS011;5597;47.588;9.642;2023-05-16T07:48:25;10.73;;;9.53;;
11086;SDS011;5597;47.588;9.642;2023-05-16T07:50:51;10.20;;;9.20;;
11086;SDS011;5597;47.588;9.642;2023-05-16T07:53:17;10.37;;;9.33;;
11086;SDS011;5597;47.588;9.642;2023-05-16T07:55:43;10.47;;;9.40;;
11086;SDS011;5597;47.588;9.642;2023-05-16T07:58:08;9.90;;;8.90;;
11086;SDS011;5597;47.588;9.642;2023-05-16T08:00:34;8.97;;;8.00;;
11086;SDS011;5597;47.588;9.642;2023-05-16T08:03:00;10.50;;;9.50;;
11086;SDS011;5597;47.588;9.642;2023-05-16T08:05:26;10.07;;;8.90;;
11086;SDS011;5597;47.588;9.642;2023-05-16T08:07:52;10.00;;;9.00;;
11086;SDS011;5597;47.588;9.642;2023-05-16T08:10:17;10.20;;;9.20;;
11086;SDS011;5597;47.588;9.642;2023-05-16T08:12:43;9.47;;;8.43;;
11086;SDS011;5597;47.588;9.642;2023-05-16T08:15:09;9.80;;;8.90;;
11086;SDS011;5597;47.588;9.642;2023-05-16T08:17:38;10.97;;;9.33;;
11086;SDS011;5597;47.588;9.642;2023-05-16T08:20:04;11.53;;;8.77;;
11086;SDS011;5597;47.588;9.642;2023-05-16T08:22:30;8.70;;;7.80;;
11086;SDS011;5597;47.588;9.642;2023-05-16T08:24:57;9.30;;;7.80;;
11086;SDS011;5597;47.588;9.642;2023-05-16T08:27:24;9.80;;;8.80;;
11086;SDS011;5597;47.588;9.642;2023-05-16T08:29:50;7.90;;;7.13;;
11086;SDS011;5597;47.588;9.642;2023-05-16T08:32:16;9.10;;;8.20;;
11086;SDS011;5597;47.588;9.642;2023-05-16T08:34:42;9.07;;;7.73;;
11086;SDS011;5597;47.588;9.642;2023-05-16T08:37:08;8.53;;;7.63;;
11086;SDS011;5597;47.588;9.642;2023-05-16T08:39:34;9.03;;;7.90;;
11086;SDS011;5597;47.588;9.642;2023-05-16T08:42:02;8.60;;;7.80;;
11086;SDS011;5597;47.588;9.642;2023-05-16T08:44:29;7.30;;;6.70;;
11086;SDS011;5597;47.588;9.642;2023-05-16T08:46:55;8.73;;;7.43;;
11086;SDS011;5597;47.588;9.642;2023-05-16T08:49:21;7.60;;;6.90;;
11086;SDS011;5597;47.588;9.642;2023-05-16T08:51:51;8.60;;;7.80;;
11086;SDS011;5597;47.588;9.642;2023-05-16T08:54:22;7.97;;;7.20;;
11086;SDS011;5597;47.588;9.642;2023-05-16T08:56:48;7.37;;;6.67;;
11086;SDS011;5597;47.588;9.642;2023-05-16T08:59:14;8.33;;;7.53;;
11086;SDS011;5597;47.588;9.642;2023-05-16T09:01:40;8.10;;;7.30;;
11086;SDS011;5597;47.588;9.642;2023-05-16T09:04:07;8.67;;;7.87;;
11086;SDS011;5597;47.588;9.642;2023-05-16T09:06:34;9.37;;;8.37;;
11086;SDS011;5597;47.588;9.642;2023-05-16T09:09:02;9.73;;;8.80;;
11086;SDS011;5597;47.588;9.642;2023-05-16T09:11:31;9.23;;;8.30;;
11086;SDS011;5597;47.588;9.642;2023-05-16T09:13:57;10.40;;;9.40;;
11086;SDS011;5597;47.588;9.642;2023-05-16T09:16:23;10.73;;;9.00;;
11086;SDS011;5597;47.588;9.642;2023-05-16T09:18:52;11.80;;;10.60;;
11086;SDS011;5597;47.588;9.642;2023-05-16T09:21:21;11.47;;;10.40;;
11086;SDS011;5597;47.588;9.642;2023-05-16T09:23:48;9.57;;;8.27;;
11086;SDS011;5597;47.588;9.642;2023-05-16T09:26:15;11.60;;;10.50;;
11086;SDS011;5597;47.588;9.642;2023-05-16T09:28:40;10.10;;;9.10;;
11086;SDS011;5597;47.588;9.642;2023-05-16T09:31:23;11.80;;;10.57;;
11086;SDS011;5597;47.588;9.642;2023-05-16T09:34:00;10.10;;;9.00;;
11086;SDS011;5597;47.588;9.642;2023-05-16T09:36:26;12.60;;;10.80;;
11086;SDS011;5597;47.588;9.642;2023-05-16T09:38:52;11.70;;;10.67;;
11086;SDS011;5597;47.588;9.642;2023-05-16T09:41:20;10.47;;;9.53;;
11086;SDS011;5597;47.588;9.642;2023-05-16T09:43:46;10.27;;;9.27;;
11086;SDS011;5597;47.588;9.642;2023-05-16T09:46:12;10.17;;;9.07;;
11086;SDS011;5597;47.588;9.642;2023-05-16T09:48:48;10.20;;;8.90;;
11086;SDS011;5597;47.588;9.642;2023-05-16T09:51:16;9.67;;;8.70;;
11086;SDS011;5597;47.588;9.642;2023-05-16T09:53:46;9.37;;;8.47;;
11086;SDS011;5597;47.588;9.642;2023-05-16T09:56:12;9.13;;;8.33;;
11086;SDS011;5597;47.588;9.642;2023-05-16T09:58:40;10.00;;;9.10;;
11086;SDS011;5597;47.588;9.642;2023-05-16T10:01:07;10.00;;;9.00;;
11086;SDS011;5597;47.588;9.642;2023-05-16T10:03:34;9.70;;;8.70;;
11086;SDS011;5597;47.588;9.642;2023-05-16T10:06:05;8.87;;;8.10;;
11086;SDS011;5597;47.588;9.642;2023-05-16T10:08:31;9.67;;;8.70;;
11086;SDS011;5597;47.588;9.642;2023-05-16T10:11:02;9.27;;;8.37;;
11086;SDS011;5597;47.588;9.642;2023-05-16T10:13:29;9.87;;;8.93;;
11086;SDS011;5597;47.588;9.642;2023-05-16T10:15:57;8.67;;;7.87;;
11086;SDS011;5597;47.588;9.642;2023-05-16T10:18:30;8.37;;;7.23;;
11086;SDS011;5597;47.588;9.642;2023-05-16T10:21:02;9.20;;;8.30;;
11086;SDS011;5597;47.588;9.642;2023-05-16T10:23:30;7.80;;;7.00;;
11086;SDS011;5597;47.588;9.642;2023-05-16T10:25:59;8.47;;;7.60;;
11086;SDS011;5597;47.588;9.642;2023-05-16T10:28:27;9.20;;;8.30;;
11086;SDS011;5597;47.588;9.642;2023-05-16T10:30:53;10.30;;;9.30;;
11086;SDS011;5597;47.588;9.642;2023-05-16T10:33:20;9.57;;;8.63;;
11086;SDS011;5597;47.588;9.642;2023-05-16T10:35:46;9.37;;;8.57;;
11086;SDS011;5597;47.588;9.642;2023-05-16T10:38:13;10.27;;;9.37;;
11086;SDS011;5597;47.588;9.642;2023-05-16T10:40:41;9.93;;;9.07;;
11086;SDS011;5597;47.588;9.642;2023-05-16T10:43:07;10.13;;;9.20;;
11086;SDS011;5597;47.588;9.642;2023-05-16T10:45:34;9.53;;;8.67;;
11086;SDS011;5597;47.588;9.642;2023-05-16T10:48:05;10.07;;;9.17;;
11086;SDS011;5597;47.588;9.642;2023-05-16T10:50:34;9.90;;;9.00;;
11086;SDS011;5597;47.588;9.642;2023-05-16T10:53:20;11.43;;;10.00;;
11086;SDS011;5597;47.588;9.642;2023-05-16T11:01:14;11.67;;;10.53;;
11086;SDS011;5597;47.588;9.642;2023-05-16T11:06:31;13.90;;;12.60;;
11086;SDS011;5597;47.588;9.642;2023-05-16T11:19:31;17.83;;;16.13;;
11086;SDS011;5597;47.588;9.642;2023-05-16T11:24:29;19.30;;;17.20;;
11086;SDS011;5597;47.588;9.642;2023-05-16T11:26:57;17.13;;;15.53;;
11086;SDS011;5597;47.588;9.642;2023-05-16T11:29:24;19.93;;;17.57;;
11086;SDS011;5597;47.588;9.642;2023-05-16T11:31:57;19.67;;;17.70;;
11086;SDS011;5597;47.588;9.642;2023-05-16T11:34:23;21.20;;;19.10;;
11086;SDS011;5597;47.588;9.642;2023-05-16T11:36:49;21.00;;;19.03;;
11086;SDS011;5597;47.588;9.642;2023-05-16T11:39:15;22.47;;;19.67;;
11086;SDS011;5597;47.588;9.642;2023-05-16T11:41:43;22.43;;;20.20;;
11086;SDS011;5597;47.588;9.642;2023-05-16T11:44:10;23.00;;;20.63;;
11086;SDS011;5597;47.588;9.642;2023-05-16T11:46:39;21.13;;;19.13;;
11086;SDS011;5597;47.588;9.642;2023-05-16T11:49:05;22.43;;;20.03;;
11086;SDS011;5597;47.588;9.642;2023-05-16T11:51:33;22.67;;;20.40;;
11086;SDS011;5597;47.588;9.642;2023-05-16T11:54:02;21.13;;;19.13;;
11086;SDS011;5597;47.588;9.642;2023-05-16T11:56:31;21.23;;;19.07;;
11086;SDS011;5597;47.588;9.642;2023-05-16T11:58:59;21.53;;;19.43;;
11086;SDS011;5597;47.588;9.642;2023-05-16T12:01:46;21.83;;;19.57;;
11086;SDS011;5597;47.588;9.642;2023-05-16T12:04:13;21.37;;;19.10;;
11086;SDS011;5597;47.588;9.642;2023-05-16T12:06:40;21.50;;;19.20;;
11086;SDS011;5597;47.588;9.642;2023-05-16T12:09:13;21.57;;;19.27;;
11086;SDS011;5597;47.588;9.642;2023-05-16T12:11:40;21.53;;;19.40;;
11086;SDS011;5597;47.588;9.642;2023-05-16T12:14:09;20.63;;;18.73;;
11086;SDS011;5597;47.588;9.642;2023-05-16T12:16:37;20.97;;;18.87;;
11086;SDS011;5597;47.588;9.642;2023-05-16T12:19:08;21.33;;;19.23;;
11086;SDS011;5597;47.588;9.642;2023-05-16T12:21:35;21.87;;;19.60;;
11086;SDS011;5597;47.588;9.642;2023-05-16T12:24:02;22.50;;;20.27;;
11086;SDS011;5597;47.588;9.642;2023-05-16T12:26:29;22.17;;;19.97;;
11086;SDS011;5597;47.588;9.642;2023-05-16T12:28:57;22.87;;;20.53;;
11086;SDS011;5597;47.588;9.642;2023-05-16T12:31:28;24.30;;;20.20;;
11086;SDS011;5597;47.588;9.642;2023-05-16T12:33:55;23.43;;;20.97;;
11086;SDS011;5597;47.588;9.642;2023-05-16T12:36:21;22.33;;;20.03;;
11086;SDS011;5597;47.588;9.642;2023-05-16T12:38:48;24.03;;;21.43;;
11086;SDS011;5597;47.588;9.642;2023-05-16T12:43:48;25.17;;;21.97;;
11086;SDS011;5597;47.588;9.642;2023-05-16T12:46:14;24.23;;;21.67;;
11086;SDS011;5597;47.588;9.642;2023-05-16T12:48:40;24.50;;;21.97;;
11086;SDS011;5597;47.588;9.642;2023-05-16T12:51:15;23.83;;;21.43;;
11086;SDS011;5597;47.588;9.642;2023-05-16T12:53:45;25.53;;;22.87;;
11086;SDS011;5597;47.588;9.642;2023-05-16T12:56:12;25.03;;;22.33;;
11086;SDS011;5597;47.588;9.642;2023-05-16T12:58:39;25.43;;;22.63;;
11086;SDS011;5597;47.588;9.642;2023-05-16T13:01:06;25.33;;;22.63;;
11086;SDS011;5597;47.588;9.642;2023-05-16T13:03:32;23.27;;;20.90;;
11086;SDS011;5597;47.588;9.642;2023-05-16T13:05:59;24.53;;;21.93;;
11086;SDS011;5597;47.588;9.642;2023-05-16T13:08:25;24.90;;;22.07;;
11086;SDS011;5597;47.588;9.642;2023-05-16T13:10:51;23.87;;;21.23;;
11086;SDS011;5597;47.588;9.642;2023-05-16T13:13:17;21.97;;;19.77;;
11086;SDS011;5597;47.588;9.642;2023-05-16T13:15:45;22.67;;;19.93;;
11086;SDS011;5597;47.588;9.642;2023-05-16T13:18:12;22.93;;;20.53;;
11086;SDS011;5597;47.588;9.642;2023-05-16T13:20:38;22.20;;;19.90;;
11086;SDS011;5597;47.588;9.642;2023-05-16T13:23:07;21.13;;;19.03;;
11086;SDS011;5597;47.588;9.642;2023-05-16T13:25:33;22.00;;;19.70;;
11086;SDS011;5597;47.588;9.642;2023-05-16T13:27:58;21.47;;;19.27;;
11086;SDS011;5597;47.588;9.642;2023-05-16T13:30:24;22.77;;;20.27;;
11086;SDS011;5597;47.588;9.642;2023-05-16T13:32:50;21.30;;;19.03;;
11086;SDS011;5597;47.588;9.642;2023-05-16T13:35:16;22.47;;;19.63;;
11086;SDS011;5597;47.588;9.642;2023-05-16T13:37:42;21.63;;;19.17;;
11086;SDS011;5597;47.588;9.642;2023-05-16T13:40:08;21.87;;;19.67;;
11086;SDS011;5597;47.588;9.642;2023-05-16T13:42:35;22.07;;;19.77;;
11086;SDS011;5597;47.588;9.642;2023-05-16T13:45:02;22.63;;;20.30;;
11086;SDS011;5597;47.588;9.642;2023-05-16T13:47:30;20.27;;;18.17;;
11086;SDS011;5597;47.588;9.642;2023-05-16T13:49:56;21.43;;;19.33;;
11086;SDS011;5597;47.588;9.642;2023-05-16T13:52:23;21.17;;;18.87;;
11086;SDS011;5597;47.588;9.642;2023-05-16T13:54:49;19.70;;;17.70;;
11086;SDS011;5597;47.588;9.642;2023-05-16T13:57:16;15.73;;;14.20;;
11086;SDS011;5597;47.588;9.642;2023-05-16T13:59:41;13.30;;;11.90;;
11086;SDS011;5597;47.588;9.642;2023-05-16T14:02:07;12.20;;;11.03;;
11086;SDS011;5597;47.588;9.642;2023-05-16T14:04:33;10.83;;;9.83;;
11086;SDS011;5597;47.588;9.642;2023-05-16T14:06:58;10.50;;;8.77;;
11086;SDS011;5597;47.588;9.642;2023-05-16T14:09:24;9.57;;;8.67;;
11086;SDS011;5597;47.588;9.642;2023-05-16T14:11:50;9.97;;;9.00;;
11086;SDS011;5597;47.588;9.642;2023-05-16T14:14:16;10.83;;;9.77;;
11086;SDS011;5597;47.588;9.642;2023-05-16T14:16:42;11.07;;;10.07;;
11086;SDS011;5597;47.588;9.642;2023-05-16T14:19:10;10.73;;;9.70;;
11086;SDS011;5597;47.588;9.642;2023-05-16T14:21:36;10.93;;;9.80;;
11086;SDS011;5597;47.588;9.642;2023-05-16T14:24:02;11.17;;;10.10;;
11086;SDS011;5597;47.588;9.642;2023-05-16T14:26:28;11.03;;;9.97;;
11086;SDS011;5597;47.588;9.642;2023-05-16T14:28:56;11.10;;;10.03;;
11086;SDS011;5597;47.588;9.642;2023-05-16T14:31:21;11.80;;;10.63;;
11086;SDS011;5597;47.588;9.642;2023-05-16T14:33:47;12.47;;;11.17;;
11086;SDS011;5597;47.588;9.642;2023-05-16T14:36:13;12.37;;;11.27;;
11086;SDS011;5597;47.588;9.642;2023-05-16T14:38:39;12.93;;;11.63;;
11086;SDS011;5597;47.588;9.642;2023-05-16T14:41:04;13.43;;;12.13;;
11086;SDS011;5597;47.588;9.642;2023-05-16T14:43:30;13.37;;;11.97;;
11086;SDS011;5597;47.588;9.642;2023-05-16T14:45:56;14.37;;;12.80;;
11086;SDS011;5597;47.588;9.642;2023-05-16T14:48:22;13.90;;;12.50;;
11086;SDS011;5597;47.588;9.642;2023-05-16T14:50:47;14.17;;;12.37;;
11086;SDS011;5597;47.588;9.642;2023-05-16T14:53:13;15.53;;;14.03;;
11086;SDS011;5597;47.588;9.642;2023-05-16T14:55:39;13.57;;;12.13;;
11086;SDS011;5597;47.588;9.642;2023-05-16T14:58:05;14.37;;;12.97;;
11086;SDS011;5597;47.588;9.642;2023-05-16T15:00:30;15.00;;;13.40;;
11086;SDS011;5597;47.588;9.642;2023-05-16T15:02:56;15.37;;;13.87;;
11086;SDS011;5597;47.588;9.642;2023-05-16T15:05:22;14.30;;;12.90;;
11086;SDS011;5597;47.588;9.642;2023-05-16T15:07:49;14.20;;;12.90;;
11086;SDS011;5597;47.588;9.642;2023-05-16T15:10:15;14.80;;;13.30;;
11086;SDS011;5597;47.588;9.642;2023-05-16T15:12:41;13.60;;;12.30;;
11086;SDS011;5597;47.588;9.642;2023-05-16T15:15:08;13.67;;;12.37;;
11086;SDS011;5597;47.588;9.642;2023-05-16T15:17:38;13.07;;;11.77;;
11086;SDS011;5597;47.588;9.642;2023-05-16T15:20:07;14.90;;;13.40;;
11086;SDS011;5597;47.588;9.642;2023-05-16T15:22:38;14.80;;;13.27;;
11086;SDS011;5597;47.588;9.642;2023-05-16T15:25:07;15.03;;;13.57;;
11086;SDS011;5597;47.588;9.642;2023-05-16T15:27:33;12.53;;;11.17;;